sensor_id;sensor_type;location;lat;lon;timestamp;pressure;altitude;pressure_sealevel;temperature;humidity
26083;BME280;13848;49.018;12.078;2023-03-24T00:00:04;97002.06;;;13.51;63.15
26083;BME280;13848;49.018;12.078;2023-03-24T00:02:30;96996.38;;;13.53;62.84
26083;BME280;13848;49.018;12.078;2023-03-24T00:04:56;96992.28;;;13.50;62.71
26083;BME280;13848;49.018;12.078;2023-03-24T00:07:22;96988.72;;;13.45;62.99
26083;BME280;13848;49.018;12.078;2023-03-24T00:09:49;96989.03;;;13.48;63.01
26083;BME280;13848;49.018;12.078;2023-03-24T00:12:16;96977.63;;;13.46;63.10
26083;BME280;13848;49.018;12.078;2023-03-24T00:14:42;96973.84;;;13.47;63.33
26083;BME280;13848;49.018;12.078;2023-03-24T00:17:08;96977.53;;;13.36;63.71
26083;BME280;13848;49.018;12.078;2023-03-24T00:19:34;96967.22;;;13.33;63.55
26083;BME280;13848;49.018;12.078;2023-03-24T00:22:00;96974.88;;;13.41;63.36
26083;BME280;13848;49.018;12.078;2023-03-24T00:24:26;96973.75;;;13.37;63.91
26083;BME280;13848;49.018;12.078;2023-03-24T00:26:56;96973.53;;;13.17;64.64
26083;BME280;13848;49.018;12.078;2023-03-24T00:29:23;96959.44;;;13.15;64.68
26083;BME280;13848;49.018;12.078;2023-03-24T00:31:49;96950.75;;;13.13;64.99
26083;BME280;13848;49.018;12.078;2023-03-24T00:34:15;96950.75;;;13.13;65.29
26083;BME280;13848;49.018;12.078;2023-03-24T00:36:41;96954.59;;;13.17;65.03
26083;BME280;13848;49.018;12.078;2023-03-24T00:39:08;96950.09;;;13.00;65.67
26083;BME280;13848;49.018;12.078;2023-03-24T00:41:36;96939.53;;;12.99;66.12
26083;BME280;13848;49.018;12.078;2023-03-24T00:44:03;96943.13;;;13.04;66.12
26083;BME280;13848;49.018;12.078;2023-03-24T00:46:29;96946.78;;;12.93;66.69
26083;BME280;13848;49.018;12.078;2023-03-24T00:48:56;96933.34;;;12.76;66.88
26083;BME280;13848;49.018;12.078;2023-03-24T00:51:23;96936.66;;;12.84;67.56
26083;BME280;13848;49.018;12.078;2023-03-24T00:53:49;96939.69;;;12.87;67.88
26083;BME280;13848;49.018;12.078;2023-03-24T00:56:15;96929.09;;;12.86;67.93
26083;BME280;13848;49.018;12.078;2023-03-24T00:58:41;96919.63;;;12.83;67.97
26083;BME280;13848;49.018;12.078;2023-03-24T01:01:08;96923.56;;;12.75;68.36
26083;BME280;13848;49.018;12.078;2023-03-24T01:03:34;96917.22;;;12.60;69.53
26083;BME280;13848;49.018;12.078;2023-03-24T01:06:01;96913.88;;;12.52;69.65
26083;BME280;13848;49.018;12.078;2023-03-24T01:08:27;96910.19;;;12.64;69.14
26083;BME280;13848;49.018;12.078;2023-03-24T01:10:54;96910.09;;;12.54;69.71
26083;BME280;13848;49.018;12.078;2023-03-24T01:13:22;96918.78;;;12.56;70.28
26083;BME280;13848;49.018;12.078;2023-03-24T01:15:49;96914.69;;;12.53;69.96
26083;BME280;13848;49.018;12.078;2023-03-24T01:18:17;96916.63;;;12.58;69.70
26083;BME280;13848;49.018;12.078;2023-03-24T01:20:44;96921.41;;;12.50;70.04
26083;BME280;13848;49.018;12.078;2023-03-24T01:23:12;96919.97;;;12.65;69.69
26083;BME280;13848;49.018;12.078;2023-03-24T01:25:38;96926.88;;;12.77;69.28
26083;BME280;13848;49.018;12.078;2023-03-24T01:28:04;96929.19;;;12.69;69.41
26083;BME280;13848;49.018;12.078;2023-03-24T01:30:30;96920.53;;;12.67;69.11
26083;BME280;13848;49.018;12.078;2023-03-24T01:32:56;96927.41;;;12.52;69.86
26083;BME280;13848;49.018;12.078;2023-03-24T01:35:25;96925.81;;;12.57;69.71
26083;BME280;13848;49.018;12.078;2023-03-24T01:37:51;96925.13;;;12.44;70.79
26083;BME280;13848;49.018;12.078;2023-03-24T01:40:20;96924.63;;;12.47;69.99
26083;BME280;13848;49.018;12.078;2023-03-24T01:42:46;96929.41;;;12.40;70.63
26083;BME280;13848;49.018;12.078;2023-03-24T01:45:42;96938.22;;;12.52;70.02
26083;BME280;13848;49.018;12.078;2023-03-24T01:48:12;96921.53;;;12.61;69.52
26083;BME280;13848;49.018;12.078;2023-03-24T01:50:42;96922.03;;;12.58;69.58
26083;BME280;13848;49.018;12.078;2023-03-24T01:53:09;96920.28;;;12.46;69.89
26083;BME280;13848;49.018;12.078;2023-03-24T01:55:36;96929.59;;;12.56;69.92
26083;BME280;13848;49.018;12.078;2023-03-24T01:58:02;96930.47;;;12.39;70.89
26083;BME280;13848;49.018;12.078;2023-03-24T02:00:29;96925.31;;;12.38;70.58
26083;BME280;13848;49.018;12.078;2023-03-24T02:02:58;96932.63;;;12.37;71.41
26083;BME280;13848;49.018;12.078;2023-03-24T02:05:28;96929.47;;;12.45;70.58
26083;BME280;13848;49.018;12.078;2023-03-24T02:08:05;96934.00;;;12.40;70.92
26083;BME280;13848;49.018;12.078;2023-03-24T02:10:34;96926.06;;;12.33;71.07
26083;BME280;13848;49.018;12.078;2023-03-24T02:13:00;96915.00;;;12.35;70.98
26083;BME280;13848;49.018;12.078;2023-03-24T02:15:28;96912.56;;;12.33;71.42
26083;BME280;13848;49.018;12.078;2023-03-24T02:18:01;96902.31;;;12.35;71.42
26083;BME280;13848;49.018;12.078;2023-03-24T02:20:46;96910.47;;;12.40;71.36
26083;BME280;13848;49.018;12.078;2023-03-24T02:23:51;96919.16;;;12.42;71.39
26083;BME280;13848;49.018;12.078;2023-03-24T02:26:41;96941.28;;;12.39;71.17
26083;BME280;13848;49.018;12.078;2023-03-24T02:32:20;96953.44;;;12.37;71.45
26083;BME280;13848;49.018;12.078;2023-03-24T02:35:14;96952.09;;;12.39;71.48
26083;BME280;13848;49.018;12.078;2023-03-24T02:38:10;96947.00;;;12.43;71.28
26083;BME280;13848;49.018;12.078;2023-03-24T02:40:43;96938.66;;;12.44;71.60
26083;BME280;13848;49.018;12.078;2023-03-24T02:43:17;96944.19;;;12.33;72.03
26083;BME280;13848;49.018;12.078;2023-03-24T02:45:55;96936.44;;;12.19;72.81
26083;BME280;13848;49.018;12.078;2023-03-24T02:48:32;96935.13;;;12.22;72.91
26083;BME280;13848;49.018;12.078;2023-03-24T02:51:06;96947.00;;;12.21;72.73
26083;BME280;13848;49.018;12.078;2023-03-24T02:53:39;96937.44;;;12.13;72.77
26083;BME280;13848;49.018;12.078;2023-03-24T02:56:11;96927.28;;;12.20;72.96
26083;BME280;13848;49.018;12.078;2023-03-24T02:58:42;96913.00;;;12.25;72.87
26083;BME280;13848;49.018;12.078;2023-03-24T03:01:13;96905.38;;;12.22;73.49
26083;BME280;13848;49.018;12.078;2023-03-24T03:03:44;96897.88;;;12.24;73.35
26083;BME280;13848;49.018;12.078;2023-03-24T03:06:15;96885.53;;;12.11;73.76
26083;BME280;13848;49.018;12.078;2023-03-24T03:08:44;96887.34;;;12.06;74.76
26083;BME280;13848;49.018;12.078;2023-03-24T03:11:14;96880.19;;;11.94;75.30
26083;BME280;13848;49.018;12.078;2023-03-24T03:13:44;96875.41;;;12.02;74.73
26083;BME280;13848;49.018;12.078;2023-03-24T03:16:16;96881.00;;;11.95;75.29
26083;BME280;13848;49.018;12.078;2023-03-24T03:18:46;96873.47;;;11.80;76.33
26083;BME280;13848;49.018;12.078;2023-03-24T03:21:15;96864.50;;;11.75;76.25
26083;BME280;13848;49.018;12.078;2023-03-24T03:23:48;96865.81;;;11.89;76.25
26083;BME280;13848;49.018;12.078;2023-03-24T03:26:18;96855.56;;;11.91;75.26
26083;BME280;13848;49.018;12.078;2023-03-24T03:28:50;96858.00;;;11.92;75.58
26083;BME280;13848;49.018;12.078;2023-03-24T03:31:18;96856.44;;;11.96;74.99
26083;BME280;13848;49.018;12.078;2023-03-24T03:33:51;96862.84;;;11.90;75.80
26083;BME280;13848;49.018;12.078;2023-03-24T03:36:22;96844.50;;;11.76;76.38
26083;BME280;13848;49.018;12.078;2023-03-24T03:38:53;96836.75;;;11.79;76.48
26083;BME280;13848;49.018;12.078;2023-03-24T03:41:23;96845.03;;;11.72;76.95
26083;BME280;13848;49.018;12.078;2023-03-24T03:43:49;96837.13;;;11.66;77.47
26083;BME280;13848;49.018;12.078;2023-03-24T03:46:16;96838.81;;;11.72;76.86
26083;BME280;13848;49.018;12.078;2023-03-24T03:48:43;96839.47;;;11.62;77.96
26083;BME280;13848;49.018;12.078;2023-03-24T03:51:10;96833.75;;;11.59;77.70
26083;BME280;13848;49.018;12.078;2023-03-24T03:53:40;96824.28;;;11.56;78.83
26083;BME280;13848;49.018;12.078;2023-03-24T03:56:09;96824.94;;;11.46;78.29
26083;BME280;13848;49.018;12.078;2023-03-24T03:58:36;96809.34;;;11.49;78.43
26083;BME280;13848;49.018;12.078;2023-03-24T04:01:03;96812.38;;;11.35;78.85
26083;BME280;13848;49.018;12.078;2023-03-24T04:03:50;96803.19;;;11.36;78.81
26083;BME280;13848;49.018;12.078;2023-03-24T04:06:23;96801.94;;;11.22;79.40
26083;BME280;13848;49.018;12.078;2023-03-24T04:08:56;96798.31;;;11.33;79.08
26083;BME280;13848;49.018;12.078;2023-03-24T04:11:33;96789.44;;;11.55;77.60
26083;BME280;13848;49.018;12.078;2023-03-24T04:14:10;96794.53;;;11.34;78.79
26083;BME280;13848;49.018;12.078;2023-03-24T04:16:46;96797.66;;;11.43;78.10
26083;BME280;13848;49.018;12.078;2023-03-24T04:19:27;96800.03;;;11.39;77.98
26083;BME280;13848;49.018;12.078;2023-03-24T04:22:05;96793.38;;;11.47;77.84
26083;BME280;13848;49.018;12.078;2023-03-24T04:24:43;96787.47;;;11.50;77.65
26083;BME280;13848;49.018;12.078;2023-03-24T04:27:15;96788.28;;;11.51;77.57
26083;BME280;13848;49.018;12.078;2023-03-24T04:29:53;96785.03;;;11.49;77.67
26083;BME280;13848;49.018;12.078;2023-03-24T04:32:27;96788.22;;;11.45;77.88
26083;BME280;13848;49.018;12.078;2023-03-24T04:34:57;96789.44;;;11.55;77.23
26083;BME280;13848;49.018;12.078;2023-03-24T04:37:26;96790.28;;;11.38;78.23
26083;BME280;13848;49.018;12.078;2023-03-24T04:39:54;96788.47;;;11.44;78.20
26083;BME280;13848;49.018;12.078;2023-03-24T04:42:24;96778.91;;;11.36;78.62
26083;BME280;13848;49.018;12.078;2023-03-24T04:44:55;96787.00;;;11.36;78.94
26083;BME280;13848;49.018;12.078;2023-03-24T04:47:24;96784.59;;;11.18;79.90
26083;BME280;13848;49.018;12.078;2023-03-24T04:49:59;96794.28;;;11.14;79.88
26083;BME280;13848;49.018;12.078;2023-03-24T04:52:25;96786.19;;;11.14;80.36
26083;BME280;13848;49.018;12.078;2023-03-24T04:54:51;96778.88;;;11.31;79.85
26083;BME280;13848;49.018;12.078;2023-03-24T04:57:17;96780.56;;;11.37;78.89
26083;BME280;13848;49.018;12.078;2023-03-24T04:59:43;96787.47;;;11.50;78.35
26083;BME280;13848;49.018;12.078;2023-03-24T05:02:10;96790.00;;;11.57;77.40
26083;BME280;13848;49.018;12.078;2023-03-24T05:04:36;96797.72;;;11.70;77.39
26083;BME280;13848;49.018;12.078;2023-03-24T05:07:02;96803.31;;;11.63;77.41
26083;BME280;13848;49.018;12.078;2023-03-24T05:09:28;96805.28;;;11.68;77.46
26083;BME280;13848;49.018;12.078;2023-03-24T05:11:54;96801.72;;;11.45;77.76
26083;BME280;13848;49.018;12.078;2023-03-24T05:14:20;96806.28;;;11.62;77.19
26083;BME280;13848;49.018;12.078;2023-03-24T05:16:46;96820.94;;;11.71;77.01
26083;BME280;13848;49.018;12.078;2023-03-24T05:19:14;96822.09;;;11.75;76.62
26083;BME280;13848;49.018;12.078;2023-03-24T05:21:40;96812.09;;;11.76;77.00
26083;BME280;13848;49.018;12.078;2023-03-24T05:24:06;96821.47;;;11.68;76.84
26083;BME280;13848;49.018;12.078;2023-03-24T05:26:33;96813.03;;;11.64;77.34
26083;BME280;13848;49.018;12.078;2023-03-24T05:28:59;96815.63;;;11.76;77.16
26083;BME280;13848;49.018;12.078;2023-03-24T05:31:25;96807.69;;;11.86;76.59
26083;BME280;13848;49.018;12.078;2023-03-24T05:33:50;96829.44;;;11.80;76.80
26083;BME280;13848;49.018;12.078;2023-03-24T05:36:18;96836.06;;;11.50;77.68
26083;BME280;13848;49.018;12.078;2023-03-24T05:38:44;96825.53;;;11.49;77.85
26083;BME280;13848;49.018;12.078;2023-03-24T05:41:10;96826.72;;;11.58;77.47
26083;BME280;13848;49.018;12.078;2023-03-24T05:43:36;96855.50;;;11.69;77.54
26083;BME280;13848;49.018;12.078;2023-03-24T05:46:02;96834.22;;;11.72;77.09
26083;BME280;13848;49.018;12.078;2023-03-24T05:48:28;96839.75;;;11.61;77.77
26083;BME280;13848;49.018;12.078;2023-03-24T05:50:54;96843.00;;;11.63;77.48
26083;BME280;13848;49.018;12.078;2023-03-24T05:53:21;96849.09;;;11.75;76.60
26083;BME280;13848;49.018;12.078;2023-03-24T05:55:47;96845.44;;;11.81;76.91
26083;BME280;13848;49.018;12.078;2023-03-24T05:58:13;96834.13;;;11.84;76.24
26083;BME280;13848;49.018;12.078;2023-03-24T06:00:38;96830.44;;;11.90;76.36
26083;BME280;13848;49.018;12.078;2023-03-24T06:03:04;96835.03;;;11.90;76.31
26083;BME280;13848;49.018;12.078;2023-03-24T06:05:31;96834.84;;;11.80;76.43
26083;BME280;13848;49.018;12.078;2023-03-24T06:07:57;96842.13;;;11.79;76.76
26083;BME280;13848;49.018;12.078;2023-03-24T06:10:25;96837.66;;;11.85;76.81
26083;BME280;13848;49.018;12.078;2023-03-24T06:12:51;96835.84;;;11.73;77.51
26083;BME280;13848;49.018;12.078;2023-03-24T06:15:17;96823.72;;;11.76;77.65
26083;BME280;13848;49.018;12.078;2023-03-24T06:17:43;96816.69;;;11.75;78.33
26083;BME280;13848;49.018;12.078;2023-03-24T06:20:10;96806.91;;;11.69;78.75
26083;BME280;13848;49.018;12.078;2023-03-24T06:22:37;96812.22;;;11.64;78.51
26083;BME280;13848;49.018;12.078;2023-03-24T06:25:03;96811.31;;;11.36;80.55
26083;BME280;13848;49.018;12.078;2023-03-24T06:27:30;96816.28;;;11.44;80.23
26083;BME280;13848;49.018;12.078;2023-03-24T06:29:56;96815.78;;;11.48;80.27
26083;BME280;13848;49.018;12.078;2023-03-24T06:32:23;96820.19;;;11.54;79.93
26083;BME280;13848;49.018;12.078;2023-03-24T06:34:49;96827.44;;;11.31;80.50
26083;BME280;13848;49.018;12.078;2023-03-24T06:37:15;96822.19;;;11.25;81.18
26083;BME280;13848;49.018;12.078;2023-03-24T06:39:41;96817.47;;;11.15;82.58
26083;BME280;13848;49.018;12.078;2023-03-24T06:42:08;96813.06;;;11.09;82.63
26083;BME280;13848;49.018;12.078;2023-03-24T06:44:35;96817.47;;;11.15;82.39
26083;BME280;13848;49.018;12.078;2023-03-24T06:47:01;96818.13;;;11.22;82.41
26083;BME280;13848;49.018;12.078;2023-03-24T06:49:27;96828.00;;;11.16;82.50
26083;BME280;13848;49.018;12.078;2023-03-24T06:51:53;96820.25;;;11.20;83.49
26083;BME280;13848;49.018;12.078;2023-03-24T06:54:18;96816.41;;;11.16;83.55
26083;BME280;13848;49.018;12.078;2023-03-24T06:56:44;96815.00;;;11.30;83.62
26083;BME280;13848;49.018;12.078;2023-03-24T06:59:10;96819.28;;;11.26;82.92
26083;BME280;13848;49.018;12.078;2023-03-24T07:01:38;96803.31;;;11.25;83.85
26083;BME280;13848;49.018;12.078;2023-03-24T07:04:04;96808.13;;;11.23;84.27
26083;BME280;13848;49.018;12.078;2023-03-24T07:06:30;96798.84;;;11.13;84.54
26083;BME280;13848;49.018;12.078;2023-03-24T07:08:56;96788.00;;;11.30;84.22
26083;BME280;13848;49.018;12.078;2023-03-24T07:11:23;96775.41;;;11.36;84.21
26083;BME280;13848;49.018;12.078;2023-03-24T07:13:49;96781.69;;;11.41;83.33
26083;BME280;13848;49.018;12.078;2023-03-24T07:16:15;96780.66;;;11.42;83.38
26083;BME280;13848;49.018;12.078;2023-03-24T07:18:42;96781.31;;;11.33;84.09
26083;BME280;13848;49.018;12.078;2023-03-24T07:21:08;96776.06;;;11.43;83.33
26083;BME280;13848;49.018;12.078;2023-03-24T07:23:34;96775.72;;;11.39;83.96
26083;BME280;13848;49.018;12.078;2023-03-24T07:26:00;96780.50;;;11.32;84.22
26083;BME280;13848;49.018;12.078;2023-03-24T07:28:26;96784.13;;;11.21;84.34
26083;BME280;13848;49.018;12.078;2023-03-24T07:30:52;96792.84;;;11.28;84.80
26083;BME280;13848;49.018;12.078;2023-03-24T07:33:18;96790.28;;;11.38;83.88
26083;BME280;13848;49.018;12.078;2023-03-24T07:35:45;96800.75;;;11.35;83.54
26083;BME280;13848;49.018;12.078;2023-03-24T07:38:11;96811.44;;;11.46;83.07
26083;BME280;13848;49.018;12.078;2023-03-24T07:40:37;96817.44;;;11.49;83.17
26083;BME280;13848;49.018;12.078;2023-03-24T07:43:04;96832.63;;;11.55;83.03
26083;BME280;13848;49.018;12.078;2023-03-24T07:45:30;96818.88;;;11.56;82.39
26083;BME280;13848;49.018;12.078;2023-03-24T07:47:57;96831.31;;;11.57;82.44
26083;BME280;13848;49.018;12.078;2023-03-24T07:50:22;96828.94;;;11.61;81.99
26083;BME280;13848;49.018;12.078;2023-03-24T07:52:50;96832.91;;;11.75;82.14
26083;BME280;13848;49.018;12.078;2023-03-24T07:55:16;96846.31;;;11.87;81.93
26083;BME280;13848;49.018;12.078;2023-03-24T07:57:45;96839.03;;;11.87;81.72
26083;BME280;13848;49.018;12.078;2023-03-24T08:00:12;96834.22;;;11.72;82.02
26083;BME280;13848;49.018;12.078;2023-03-24T08:02:38;96843.31;;;11.66;82.89
26083;BME280;13848;49.018;12.078;2023-03-24T08:05:04;96842.72;;;11.81;82.86
26083;BME280;13848;49.018;12.078;2023-03-24T08:07:30;96855.31;;;11.76;82.21
26083;BME280;13848;49.018;12.078;2023-03-24T08:09:57;96845.75;;;11.85;81.67
26083;BME280;13848;49.018;12.078;2023-03-24T08:12:23;96854.16;;;12.32;81.22
26083;BME280;13848;49.018;12.078;2023-03-24T08:14:49;96853.75;;;12.45;80.55
26083;BME280;13848;49.018;12.078;2023-03-24T08:17:15;96865.59;;;12.39;80.64
26083;BME280;13848;49.018;12.078;2023-03-24T08:19:41;96859.56;;;12.32;80.21
26083;BME280;13848;49.018;12.078;2023-03-24T08:22:07;96868.13;;;12.24;80.67
26083;BME280;13848;49.018;12.078;2023-03-24T08:24:33;96875.66;;;12.22;80.34
26083;BME280;13848;49.018;12.078;2023-03-24T08:27:01;96879.06;;;12.12;81.04
26083;BME280;13848;49.018;12.078;2023-03-24T08:29:27;96875.03;;;12.15;80.61
26083;BME280;13848;49.018;12.078;2023-03-24T08:31:53;96870.09;;;12.07;81.24
26083;BME280;13848;49.018;12.078;2023-03-24T08:34:19;96882.94;;;11.99;81.61
26083;BME280;13848;49.018;12.078;2023-03-24T08:36:44;96880.97;;;12.12;80.94
26083;BME280;13848;49.018;12.078;2023-03-24T08:39:10;96875.03;;;12.15;81.64
26083;BME280;13848;49.018;12.078;2023-03-24T08:41:37;96875.78;;;12.10;81.41
26083;BME280;13848;49.018;12.078;2023-03-24T08:44:05;96879.34;;;11.94;82.52
26083;BME280;13848;49.018;12.078;2023-03-24T08:46:31;96870.06;;;11.85;83.21
26083;BME280;13848;49.018;12.078;2023-03-24T08:48:58;96877.53;;;11.99;83.17
26083;BME280;13848;49.018;12.078;2023-03-24T08:51:25;96872.19;;;12.05;83.75
26083;BME280;13848;49.018;12.078;2023-03-24T08:53:51;96873.53;;;12.24;82.10
26083;BME280;13848;49.018;12.078;2023-03-24T08:56:18;96875.78;;;12.32;82.19
26083;BME280;13848;49.018;12.078;2023-03-24T08:58:44;96881.88;;;12.22;82.54
26083;BME280;13848;49.018;12.078;2023-03-24T09:01:12;96880.19;;;12.38;82.41
26083;BME280;13848;49.018;12.078;2023-03-24T09:03:38;96888.16;;;12.50;81.54
26083;BME280;13848;49.018;12.078;2023-03-24T09:06:04;96889.38;;;12.37;82.15
26083;BME280;13848;49.018;12.078;2023-03-24T09:08:30;96894.38;;;12.50;81.30
26083;BME280;13848;49.018;12.078;2023-03-24T09:10:56;96907.97;;;12.56;81.13
26083;BME280;13848;49.018;12.078;2023-03-24T09:13:23;96900.78;;;12.44;82.48
26083;BME280;13848;49.018;12.078;2023-03-24T09:15:50;96909.47;;;12.46;82.55
26083;BME280;13848;49.018;12.078;2023-03-24T09:18:20;96905.91;;;12.41;82.80
26083;BME280;13848;49.018;12.078;2023-03-24T09:20:46;96913.25;;;12.45;82.70
26083;BME280;13848;49.018;12.078;2023-03-24T09:23:12;96909.47;;;12.46;82.42
26083;BME280;13848;49.018;12.078;2023-03-24T09:25:38;96902.22;;;12.52;82.21
26083;BME280;13848;49.018;12.078;2023-03-24T09:28:04;96902.06;;;12.59;82.31
26083;BME280;13848;49.018;12.078;2023-03-24T09:30:31;96904.28;;;12.67;82.53
26083;BME280;13848;49.018;12.078;2023-03-24T09:32:57;96904.41;;;12.77;82.12
26083;BME280;13848;49.018;12.078;2023-03-24T09:35:25;96903.53;;;12.71;82.52
26083;BME280;13848;49.018;12.078;2023-03-24T09:37:52;96904.41;;;12.77;82.39
26083;BME280;13848;49.018;12.078;2023-03-24T09:40:21;96901.66;;;12.72;82.40
26083;BME280;13848;49.018;12.078;2023-03-24T09:42:51;96905.50;;;12.81;81.95
26083;BME280;13848;49.018;12.078;2023-03-24T09:45:20;96912.25;;;12.78;82.10
26083;BME280;13848;49.018;12.078;2023-03-24T09:47:51;96917.09;;;12.49;83.62
26083;BME280;13848;49.018;12.078;2023-03-24T09:50:21;96918.22;;;12.54;83.12
26083;BME280;13848;49.018;12.078;2023-03-24T09:52:53;96916.31;;;12.76;82.61
26083;BME280;13848;49.018;12.078;2023-03-24T09:55:23;96919.75;;;12.98;82.26
26083;BME280;13848;49.018;12.078;2023-03-24T09:57:50;96923.19;;;12.89;82.16
26083;BME280;13848;49.018;12.078;2023-03-24T10:00:19;96927.47;;;12.85;83.42
26083;BME280;13848;49.018;12.078;2023-03-24T10:02:46;96928.34;;;12.90;83.14
26083;BME280;13848;49.018;12.078;2023-03-24T10:05:13;96932.22;;;12.72;84.38
26083;BME280;13848;49.018;12.078;2023-03-24T10:07:44;96925.94;;;12.67;84.42
26083;BME280;13848;49.018;12.078;2023-03-24T10:10:21;96935.72;;;12.73;84.32
26083;BME280;13848;49.018;12.078;2023-03-24T10:12:48;96930.84;;;12.70;84.60
26083;BME280;13848;49.018;12.078;2023-03-24T10:15:19;96941.81;;;12.85;83.96
26083;BME280;13848;49.018;12.078;2023-03-24T10:17:54;96937.28;;;12.91;84.27
26083;BME280;13848;49.018;12.078;2023-03-24T10:20:31;96936.56;;;12.73;83.39
26083;BME280;13848;49.018;12.078;2023-03-24T10:23:06;96938.91;;;12.65;84.24
26083;BME280;13848;49.018;12.078;2023-03-24T10:25:44;96939.06;;;12.80;84.23
26083;BME280;13848;49.018;12.078;2023-03-24T10:28:17;96940.94;;;12.79;83.52
26083;BME280;13848;49.018;12.078;2023-03-24T10:30:46;96953.09;;;12.77;83.92
26083;BME280;13848;49.018;12.078;2023-03-24T10:33:13;96952.09;;;12.83;84.01
26083;BME280;13848;49.018;12.078;2023-03-24T10:35:50;96946.41;;;12.85;84.05
26083;BME280;13848;49.018;12.078;2023-03-24T10:38:21;96953.09;;;13.04;83.04
26083;BME280;13848;49.018;12.078;2023-03-24T10:40:49;96953.31;;;12.97;83.32
26083;BME280;13848;49.018;12.078;2023-03-24T10:43:16;96954.13;;;12.98;83.14
26083;BME280;13848;49.018;12.078;2023-03-24T10:45:46;96947.34;;;12.95;83.33
26083;BME280;13848;49.018;12.078;2023-03-24T10:48:13;96953.41;;;13.08;83.77
26083;BME280;13848;49.018;12.078;2023-03-24T10:50:58;96952.06;;;13.10;83.81
26083;BME280;13848;49.018;12.078;2023-03-24T10:53:24;96927.38;;;13.01;82.56
26083;BME280;13848;49.018;12.078;2023-03-24T10:55:51;96928.50;;;13.05;82.86
26083;BME280;13848;49.018;12.078;2023-03-24T10:58:20;96911.34;;;13.22;83.44
26083;BME280;13848;49.018;12.078;2023-03-24T11:00:49;96900.69;;;13.15;83.64
26083;BME280;13848;49.018;12.078;2023-03-24T11:03:20;96882.94;;;12.97;83.98
26083;BME280;13848;49.018;12.078;2023-03-24T11:05:57;96857.03;;;12.74;84.18
26083;BME280;13848;49.018;12.078;2023-03-24T11:08:26;96845.72;;;12.77;83.65
26083;BME280;13848;49.018;12.078;2023-03-24T11:10:54;96858.31;;;12.94;83.81
26083;BME280;13848;49.018;12.078;2023-03-24T11:13:30;96858.97;;;13.06;83.44
26083;BME280;13848;49.018;12.078;2023-03-24T11:16:05;96854.56;;;13.00;82.57
26083;BME280;13848;49.018;12.078;2023-03-24T11:18:34;96860.91;;;13.11;83.16
26083;BME280;13848;49.018;12.078;2023-03-24T11:21:01;96859.69;;;12.96;82.82
26083;BME280;13848;49.018;12.078;2023-03-24T11:23:30;96872.72;;;12.99;83.10
26083;BME280;13848;49.018;12.078;2023-03-24T11:26:19;96870.19;;;12.93;84.61
26083;BME280;13848;49.018;12.078;2023-03-24T11:28:49;96874.88;;;13.02;83.85
26083;BME280;13848;49.018;12.078;2023-03-24T11:31:21;96871.31;;;13.24;83.52
26083;BME280;13848;49.018;12.078;2023-03-24T11:33:53;96873.88;;;13.41;82.83
26083;BME280;13848;49.018;12.078;2023-03-24T11:36:43;96880.19;;;13.56;82.45
26083;BME280;13848;49.018;12.078;2023-03-24T11:39:16;96893.72;;;13.51;82.11
26083;BME280;13848;49.018;12.078;2023-03-24T11:42:03;96910.50;;;13.48;82.81
26083;BME280;13848;49.018;12.078;2023-03-24T11:44:40;96907.94;;;13.74;82.41
26083;BME280;13848;49.018;12.078;2023-03-24T11:47:11;96898.63;;;13.54;82.86
26083;BME280;13848;49.018;12.078;2023-03-24T11:49:41;96909.97;;;13.51;82.43
26083;BME280;13848;49.018;12.078;2023-03-24T11:52:16;96901.44;;;13.70;82.05
26083;BME280;13848;49.018;12.078;2023-03-24T11:54:45;96886.53;;;13.72;80.78
26083;BME280;13848;49.018;12.078;2023-03-24T11:57:14;96886.28;;;13.69;80.86
26083;BME280;13848;49.018;12.078;2023-03-24T11:59:48;96891.41;;;13.70;80.01
26083;BME280;13848;49.018;12.078;2023-03-24T12:02:24;96883.09;;;13.82;80.25
26083;BME280;13848;49.018;12.078;2023-03-24T12:05:02;96878.78;;;13.91;78.78
26083;BME280;13848;49.018;12.078;2023-03-24T12:07:48;96881.06;;;14.04;78.66
26083;BME280;13848;49.018;12.078;2023-03-24T12:10:23;96868.06;;;14.11;78.14
26083;BME280;13848;49.018;12.078;2023-03-24T12:13:00;96869.81;;;14.38;77.96
26083;BME280;13848;49.018;12.078;2023-03-24T12:15:39;96869.16;;;14.10;76.45
26083;BME280;13848;49.018;12.078;2023-03-24T12:18:30;96860.09;;;13.90;76.74
26083;BME280;13848;49.018;12.078;2023-03-24T12:21:01;96864.97;;;13.88;77.41
26083;BME280;13848;49.018;12.078;2023-03-24T12:23:37;96858.00;;;14.07;76.88
26083;BME280;13848;49.018;12.078;2023-03-24T12:26:17;96857.03;;;14.28;75.33
26083;BME280;13848;49.018;12.078;2023-03-24T12:29:09;96853.06;;;14.51;74.78
26083;BME280;13848;49.018;12.078;2023-03-24T12:31:55;96835.44;;;14.64;74.71
26083;BME280;13848;49.018;12.078;2023-03-24T12:34:32;96830.31;;;14.83;73.58
26083;BME280;13848;49.018;12.078;2023-03-24T12:37:06;96840.88;;;14.64;72.55
26083;BME280;13848;49.018;12.078;2023-03-24T12:39:42;96830.81;;;14.54;73.33
26083;BME280;13848;49.018;12.078;2023-03-24T12:42:12;96812.91;;;14.53;72.69
26083;BME280;13848;49.018;12.078;2023-03-24T12:44:55;96809.66;;;14.67;72.90
26083;BME280;13848;49.018;12.078;2023-03-24T12:47:36;96802.63;;;14.55;72.63
26083;BME280;13848;49.018;12.078;2023-03-24T12:50:17;96810.22;;;14.69;72.04
26083;BME280;13848;49.018;12.078;2023-03-24T12:52:58;96800.47;;;14.88;71.88
26083;BME280;13848;49.018;12.078;2023-03-24T12:55:31;96806.44;;;14.90;70.95
26083;BME280;13848;49.018;12.078;2023-03-24T12:58:03;96829.78;;;14.81;70.88
26083;BME280;13848;49.018;12.078;2023-03-24T13:00:36;96825.72;;;14.88;71.27
26083;BME280;13848;49.018;12.078;2023-03-24T13:03:05;96830.88;;;14.85;70.74
26083;BME280;13848;49.018;12.078;2023-03-24T13:05:40;96819.19;;;14.89;70.96